Monday, February 8, 2016, 4:59 AM EST

KSHD, Staunton / Shenandoah

Location: Weyers Cave, VA, United States Lat: 38.267
Local Time: 4:59 AM EST ( 9:59 GMT) Lon: -78.9
Time Zone: US/Eastern Elev: 1200 ft

Show me the last for .
Show Decoded

2016-02-08 04:35 METAR KSHD 080935Z AUTO 00000KT 7SM CLR M03/M05 A2979 RMK AO2 T10331046 =
2016-02-08 04:15 METAR KSHD 080915Z AUTO 00000KT 7SM CLR M03/M04 A2979 RMK AO2 T10301043 =
2016-02-08 03:55 METAR KSHD 080855Z AUTO 00000KT 7SM CLR M03/M04 A2979 RMK AO2 T10311044 =
2016-02-08 03:35 METAR KSHD 080835Z AUTO 00000KT 7SM CLR M03/M04 A2980 RMK AO2 T10331045 =
2016-02-08 03:15 METAR KSHD 080815Z AUTO 00000KT 7SM CLR M03/M05 A2981 RMK AO2 T10331047 =
2016-02-08 02:55 METAR KSHD 080755Z AUTO 00000KT 7SM CLR M03/M05 A2980 RMK AO2 T10351047 =
2016-02-08 02:35 METAR KSHD 080735Z AUTO 00000KT 10SM CLR M03/M04 A2981 RMK AO2 T10301045 =
2016-02-08 02:15 METAR KSHD 080715Z AUTO 00000KT 10SM CLR M02/M04 A2982 RMK AO2 LTG DSNT SE
                 T10231039 =
2016-02-08 01:55 METAR KSHD 080655Z AUTO 00000KT 10SM CLR M03/M04 A2983 RMK AO2 T10261039 =
2016-02-08 01:35 METAR KSHD 080635Z AUTO 00000KT 7SM CLR M03/M04 A2984 RMK AO2 T10291044 =
2016-02-08 01:15 METAR KSHD 080615Z AUTO 00000KT 10SM CLR M02/M04 A2984 RMK AO2 T10181037 =
2016-02-08 00:55 METAR KSHD 080555Z AUTO 00000KT 10SM CLR M02/M04 A2985 RMK AO2 T10181036 10028
                 21020 400781038 =
2016-02-08 00:35 METAR KSHD 080535Z AUTO 00000KT 10SM CLR M02/M03 A2986 RMK AO2 T10181034 =
2016-02-08 00:15 METAR KSHD 080515Z AUTO 00000KT 10SM CLR M02/M03 A2986 RMK AO2 T10171035 =
2016-02-07 23:55 METAR KSHD 080455Z AUTO 00000KT 10SM CLR M02/M04 A2987 RMK AO2 T10191038 =
2016-02-07 23:35 METAR KSHD 080435Z AUTO 00000KT 10SM CLR M01/M03 A2987 RMK AO2 T10131032 =
2016-02-07 23:15 METAR KSHD 080415Z AUTO 00000KT 10SM CLR M01/M03 A2988 RMK AO2 T10121032 =
2016-02-07 22:55 METAR KSHD 080355Z AUTO 00000KT 10SM CLR M01/M03 A2988 RMK AO2 T10111031 =
2016-02-07 22:35 METAR KSHD 080335Z AUTO 00000KT 10SM CLR M01/M04 A2990 RMK AO2 T10141036 =
2016-02-07 22:15 METAR KSHD 080315Z AUTO 00000KT 10SM CLR M01/M03 A2991 RMK AO2 T10081034 =
2016-02-07 21:55 METAR KSHD 080255Z AUTO 00000KT 10SM CLR 00/M03 A2991 RMK AO2 T10051031 =
2016-02-07 21:35 METAR KSHD 080235Z AUTO 00000KT 10SM CLR 00/M03 A2991 RMK AO2 T10021028 =
2016-02-07 21:15 METAR KSHD 080215Z AUTO 00000KT 10SM CLR 00/M03 A2992 RMK AO2 T00001028 =
2016-02-07 20:55 METAR KSHD 080155Z AUTO 00000KT 10SM CLR 00/M03 A2993 RMK AO2 T10011027 =
2016-02-07 20:35 METAR KSHD 080135Z AUTO 00000KT 10SM CLR 00/M03 A2993 RMK AO2 T00011032 =
2016-02-07 20:15 METAR KSHD 080115Z AUTO 00000KT 10SM CLR 01/M03 A2993 RMK AO2 T00051031 =
2016-02-07 19:55 METAR KSHD 080055Z AUTO 00000KT 10SM CLR 02/M03 A2993 RMK AO2 T00181033 =
2016-02-07 19:35 METAR KSHD 080035Z AUTO 00000KT 10SM CLR 02/M03 A2993 RMK AO2 T00161032 =
2016-02-07 19:15 METAR KSHD 080015Z AUTO 00000KT 10SM CLR 02/M03 A2994 RMK AO2 T00231030 =
2016-02-07 18:55 METAR KSHD 072355Z AUTO 00000KT 10SM CLR 03/M03 A2994 RMK AO2 T00291030 10078
                 20027 =
2016-02-07 18:35 METAR KSHD 072335Z AUTO 00000KT 10SM CLR 04/M03 A2995 RMK AO2 T00391032 =
2016-02-07 18:15 METAR KSHD 072315Z AUTO 34003KT 10SM CLR 05/M03 A2995 RMK AO2 T00481028 =
2016-02-07 17:55 METAR KSHD 072255Z AUTO 34003KT 10SM CLR 06/M03 A2995 RMK AO2 T00581028 =
2016-02-07 17:35 METAR KSHD 072235Z AUTO 33003KT 10SM CLR 06/M02 A2995 RMK AO2 T00621025 =
2016-02-07 17:15 METAR KSHD 072215Z AUTO 35003KT 10SM CLR 07/M03 A2995 RMK AO2 T00711028 =
2016-02-07 16:55 METAR KSHD 072155Z AUTO 04004KT 10SM CLR 07/M03 A2996 RMK AO2 T00721029 =
2016-02-07 16:35 METAR KSHD 072135Z AUTO 07003KT 10SM CLR 08/M03 A2996 RMK AO2 T00761029 =
2016-02-07 16:15 METAR KSHD 072115Z AUTO 03005KT 10SM CLR 08/M03 A2996 RMK AO2 T00771027 =
2016-02-07 15:55 METAR KSHD 072055Z AUTO 00000KT 10SM CLR 08/M03 A2996 RMK AO2 T00771026 =
2016-02-07 15:35 METAR KSHD 072035Z AUTO 12003KT 10SM CLR 08/M02 A2997 RMK AO2 T00751025 =
2016-02-07 15:15 METAR KSHD 072015Z AUTO 00000KT 10SM CLR 07/M02 A2999 RMK AO2 T00741020 =
2016-02-07 14:55 METAR KSHD 071955Z AUTO 00000KT 10SM CLR 08/M02 A3001 RMK AO2 T00761018 =
2016-02-07 14:35 METAR KSHD 071935Z AUTO 00000KT 10SM CLR 07/M02 A3001 RMK AO2 T00741023 =
2016-02-07 14:15 METAR KSHD 071915Z AUTO 04003KT 10SM CLR 07/M03 A3003 RMK AO2 T00691028 =
2016-02-07 13:55 METAR KSHD 071855Z AUTO 03005KT 10SM CLR 07/M03 A3003 RMK AO2 T00651033 =
2016-02-07 13:35 METAR KSHD 071835Z AUTO 00000KT 10SM CLR 06/M03 A3006 RMK AO2 T00601029 =
2016-02-07 13:15 METAR KSHD 071815Z AUTO 00000KT 10SM CLR 06/M03 A3008 RMK AO2 T00551026 =
2016-02-07 12:55 METAR KSHD 071755Z AUTO 00000KT 10SM CLR 05/M03 A3008 RMK AO2 T00471030 10047
                 21035 =
2016-02-07 12:35 METAR KSHD 071735Z AUTO 00000KT 10SM CLR 04/M02 A3009 RMK AO2 T00411023 =
2016-02-07 12:15 METAR KSHD 071715Z AUTO 00000KT 10SM CLR 04/M02 A3009 RMK AO2 T00361023 =
2016-02-07 11:55 METAR KSHD 071655Z AUTO 00000KT 10SM CLR 03/M02 A3012 RMK AO2 T00301022 =
2016-02-07 11:35 METAR KSHD 071635Z AUTO 00000KT 10SM CLR 03/M02 A3013 RMK AO2 T00291017 =
2016-02-07 11:15 METAR KSHD 071615Z AUTO 36003KT 10SM CLR 03/M02 A3012 RMK AO2 T00251022 =
2016-02-07 10:55 METAR KSHD 071555Z AUTO 31003KT 10SM CLR 02/M02 A3014 RMK AO2 T00211021 =
2016-02-07 10:35 METAR KSHD 071535Z AUTO 32004KT 10SM CLR 01/M02 A3014 RMK AO2 T00111018 =
2016-02-07 10:15 METAR KSHD 071515Z AUTO 29003KT 10SM CLR 01/M03 A3017 RMK AO2 T00051026 =
2016-02-07 09:55 METAR KSHD 071455Z AUTO 25003KT 10SM CLR 00/M03 A3018 RMK AO2 T00001029 =
2016-02-07 09:35 METAR KSHD 071435Z AUTO 16003KT 10SM CLR 00/M03 A3017 RMK AO2 T10051029 =
2016-02-07 09:15 METAR KSHD 071415Z AUTO 00000KT 10SM CLR M01/M03 A3016 RMK AO2 T10131033 =
2016-02-07 08:55 METAR KSHD 071355Z AUTO 00000KT 10SM CLR M02/M04 A3016 RMK AO2 T10171037 =
2016-02-07 08:35 METAR KSHD 071335Z AUTO 00000KT 10SM CLR M02/M04 A3016 RMK AO2 T10231039 =
2016-02-07 08:15 METAR KSHD 071315Z AUTO 00000KT 10SM CLR M03/M04 A3015 RMK AO2 T10291044 =
2016-02-07 07:55 METAR KSHD 071255Z AUTO 00000KT 10SM CLR M03/M05 A3017 RMK AO2 T10321053 =
2016-02-07 07:35 METAR KSHD 071235Z AUTO 00000KT 10SM CLR M03/M04 A3016 RMK AO2 T10301045 =
2016-02-07 07:15 METAR KSHD 071215Z AUTO 00000KT 10SM CLR M03/M05 A3016 RMK AO2 T10341051 =
2016-02-07 06:55 METAR KSHD 071155Z AUTO 00000KT 10SM CLR M03/M05 A3016 RMK AO2 T10331050 11005
                 21038 =
2016-02-07 06:35 METAR KSHD 071135Z AUTO 16003KT 10SM CLR M03/M05 A3018 RMK AO2 T10301049 =
2016-02-07 06:15 METAR KSHD 071115Z AUTO 00000KT 10SM CLR M03/M04 A3017 RMK AO2 T10291045 =
2016-02-07 05:55 METAR KSHD 071055Z AUTO 00000KT 10SM CLR M03/M05 A3016 RMK AO2 T10311049 =
2016-02-07 05:35 METAR KSHD 071035Z AUTO 00000KT 10SM CLR M04/M06 A3016 RMK AO2 T10371056 =
2016-02-07 05:15 METAR KSHD 071015Z AUTO 00000KT 10SM CLR M03/M05 A3018 RMK AO2 T10291048 =

Support USWX by starting your Amazon purchase here.